Fort Myers, FL (33913)

1:23 PM EST on January 23, 2017 (GMT -0500)
Meghan Westminster | | Change Station
Active Advisory: Gale Warning Active Notice: Public Information Statement

Elev 39 ft 26.61 °N, 81.73 °W | Updated 48 seconds ago

Overcast
Overcast
73.5 °F
Feels Like 77 °F
N
10.0
Wind Variable Wind from West

Today
High -- | Low -- °F
--% Chance of Precip.
Yesterday
High -- | Low -- °F
Precip. -- in
Pressure 29.64 in
Visibility 10.0 miles
Clouds Few 2600 ft
Mostly Cloudy 4300 ft
Overcast 5000 ft
Heat Index 77 °F
Dew Point 56 °F
Humidity 55%
Rainfall 0.00 in
Snow Depth Not available.
7:15 AM 6:02 PM
Waning Crescent, 17% visible
METAR KRSW 231753Z COR 28013G33KT 10SM -RA FEW026 BKN043 OVC050 19/15 A2965 RMK AO2 PK WND 30033/1746 RAE1658B39 SLP036 P0000 60009 T01890150 10233 20183 58001
Pressure 29.64 in
Visibility 10.0 miles
Clouds Few 2600 ft
Mostly Cloudy 4300 ft
Overcast 5000 ft
Heat Index 77 °F
Dew Point 56 °F
Humidity 55%
Rainfall 0.00 in
Snow Depth Not available.
7:15 AM 6:02 PM
Waning Crescent, 17% visible
METAR KRSW 231753Z COR 28013G33KT 10SM -RA FEW026 BKN043 OVC050 19/15 A2965 RMK AO2 PK WND 30033/1746 RAE1658B39 SLP036 P0000 60009 T01890150 10233 20183 58001

Get Your Daily Forecast Email!

Thanks for signing up!

Be on the lookout for a verification email in your inbox.

You'll start receiving the daily forecast at 8 AM.

×

10-Day Weather Forecast

Almanac

Astronomy

Jan. 23, 2017 Rise Set
Actual Time
Civil Twilight
Nautical Twilight
Astronomical Twilight
Moon
Length of Visible Light
Length of Day
Tomorrow will be .
, % of the Moon is Illuminated

Today's Extremes

State Highs State Lows

Community

WunderPhotos

Upload Photos

1,962,540 photos uploaded!

WunderBlog® & News

Nearby

Air Quality

  Air Quality AQ Index Pollutant
Not available.

Snow Depth

Station Depth Elevation

Earthquake Activity

City Distance Mag. Time & Date
Minimum magnitude displayed is 2.5.

Coastal Water Temperatures

Place Temperature

Stations

Nearby Weather Stations

Station Location Temp. Windchill Dew Point Humidity Wind Precip. Elev Updated Type
                   

Watches & Warnings

Gale Warning
Issued: 10:41 AM EST Jan. 23, 2017 – National Weather Service

... Gale Warning remains in effect until 7 PM EST this evening...

* winds... around 30 knots with gusts to 40 knots.

* Waves/seas... 12 to 20 feet.

Precautionary/preparedness actions...

A Gale Warning means winds of 34 to 47 knots are imminent or
occurring. Operating a vessel in gale conditions requires
experience and properly equipped vessels. It is highly recommended
that mariners without the proper experience seek safe Harbor
prior to the onset of gale conditions.